Terminal Aerodrome Forecast
Issued by NWS Rapid City, SD

Home | Current Version | Previous Version | Graphics & Text | Print | Product List | Glossary On
Versions: 1 2 3 4 5 6 7 8 9 10 11 12 13 14 15 16 17
000
FTUS43 KUNR 281100
TAFRAP
TAF
KRAP 281137Z 2812/2912 32009KT P6SM SCT250 WS005/33035KT
     FM281600 33018G30KT P6SM BKN120
     FM281900 33029G39KT P6SM BKN150
     FM290200 34020G30KT P6SM SKC=

USA.gov is the U.S. government's official web portal to all federal, state and local government web resources and services.